Time;durP1;ratioP1;P1;durP2;ratioP2;P2;SDS_P1;SDS_P2;PMS_P1;PMS_P2;Temp;Humidity;BMP_temperature;BMP_pressure;BME280_temperature;BME280_humidity;BME280_pressure;Samples;Min_cycle;Max_cycle;Signal;HPM_P1;HPM_P2
2022/12/19 00:01:46;;;;;;;9.00;6.35;;;8.80;99.90;;;;;;5052216;28;20040;-69
2022/12/19 00:04:14;;;;;;;7.80;6.30;;;8.70;99.90;;;;;;5052487;28;20029;-68
2022/12/19 00:06:40;;;;;;;11.63;7.15;;;8.70;99.90;;;;;;5051856;28;20056;-69
2022/12/19 00:09:06;;;;;;;9.95;6.57;;;8.70;99.90;;;;;;5052120;28;20052;-69
2022/12/19 00:11:32;;;;;;;7.40;6.55;;;8.70;99.90;;;;;;5051802;28;20098;-69
2022/12/19 00:13:59;;;;;;;9.18;6.47;;;8.60;99.90;;;;;;5052469;28;20021;-69
2022/12/19 00:16:27;;;;;;;9.68;6.53;;;8.60;99.90;;;;;;5052185;28;20112;-69
2022/12/19 00:18:55;;;;;;;11.35;6.80;;;8.60;99.90;;;;;;5052005;28;20028;-69
2022/12/19 00:21:23;;;;;;;8.15;6.40;;;8.60;99.90;;;;;;5051702;28;20104;-69
2022/12/19 00:23:49;;;;;;;9.07;6.35;;;8.70;99.90;;;;;;5051980;28;20514;-69
2022/12/19 00:26:30;;;;;;;10.05;6.38;;;8.80;99.90;;;;;;5052330;28;20033;-69
2022/12/19 00:28:58;;;;;;;9.10;6.20;;;8.70;99.90;;;;;;5051787;28;20035;-68
2022/12/19 00:31:26;;;;;;;9.15;6.53;;;8.90;99.90;;;;;;5051879;28;20025;-68
2022/12/19 00:33:52;;;;;;;8.50;6.30;;;8.90;99.90;;;;;;5051779;28;20485;-68
2022/12/19 00:36:23;;;;;;;9.35;6.53;;;8.90;99.90;;;;;;5052025;28;20036;-69
2022/12/19 00:38:50;;;;;;;8.07;6.00;;;9.00;99.90;;;;;;5051896;28;20037;-69
2022/12/19 00:41:21;;;;;;;8.52;5.93;;;9.00;99.90;;;;;;5051673;28;20501;-69
2022/12/19 00:43:55;;;;;;;8.95;6.60;;;8.90;99.90;;;;;;5054713;28;20021;-69
2022/12/19 00:46:21;;;;;;;8.10;6.20;;;8.90;99.90;;;;;;5055934;28;20029;-69
2022/12/19 00:48:47;;;;;;;7.68;6.00;;;9.00;99.90;;;;;;5056078;28;20089;-69
2022/12/19 00:51:16;;;;;;;7.10;6.20;;;9.00;99.90;;;;;;5055989;28;20040;-69
2022/12/19 00:53:43;;;;;;;10.25;6.40;;;9.00;99.90;;;;;;5055889;28;20021;-69
2022/12/19 00:56:15;;;;;;;9.38;6.25;;;9.00;99.90;;;;;;5055764;28;20084;-69
2022/12/19 00:58:41;;;;;;;9.43;6.25;;;9.00;99.90;;;;;;5055836;28;20493;-68
2022/12/19 01:01:32;;;;;;;10.45;6.18;;;9.00;99.90;;;;;;5055456;28;20493;-69
2022/12/19 01:03:59;;;;;;;8.88;5.88;;;9.10;99.90;;;;;;5055400;28;20032;-68
2022/12/19 01:06:25;;;;;;;9.32;6.40;;;9.30;99.90;;;;;;5056099;28;20028;-68
2022/12/19 01:08:51;;;;;;;9.90;8.20;;;9.20;99.90;;;;;;5055217;28;20115;-69
2022/12/19 01:12:44;;;;;;;8.98;5.75;;;9.10;99.90;;;;;;5055166;28;20041;-68
2022/12/19 01:14:03;;;;;;;9.10;5.72;;;9.20;99.90;;;;;;5055333;28;20036;-68
2022/12/19 01:16:29;;;;;;;9.70;5.80;;;9.20;99.90;;;;;;5055312;28;20029;-68
2022/12/19 01:18:54;;;;;;;7.28;5.60;;;9.20;99.90;;;;;;5054976;28;20017;-68
2022/12/19 01:21:20;;;;;;;12.93;6.70;;;9.20;99.90;;;;;;5055191;28;20100;-68
2022/12/19 01:23:46;;;;;;;12.43;5.90;;;9.10;99.90;;;;;;5055280;28;20013;-69
2022/12/19 01:26:12;;;;;;;10.32;5.95;;;9.20;99.90;;;;;;5055510;28;20442;-69
2022/12/19 01:28:38;;;;;;;9.00;5.70;;;9.10;99.90;;;;;;5054655;28;20027;-69
2022/12/19 01:31:05;;;;;;;7.90;5.50;;;9.20;99.90;;;;;;5055261;28;20375;-69
2022/12/19 01:33:31;;;;;;;9.70;5.43;;;9.20;99.90;;;;;;5054670;28;20367;-69
2022/12/19 01:35:56;;;;;;;11.95;5.90;;;9.20;99.90;;;;;;5055389;28;20024;-68
2022/12/19 01:38:22;;;;;;;9.68;6.20;;;9.10;99.90;;;;;;5054930;28;20029;-68
2022/12/19 01:40:53;;;;;;;11.20;5.68;;;9.20;99.90;;;;;;5054753;28;20029;-69
2022/12/19 01:43:20;;;;;;;9.77;5.95;;;9.10;99.90;;;;;;5055130;28;20035;-69
2022/12/19 01:45:48;;;;;;;7.90;5.30;;;9.10;99.90;;;;;;5054898;28;20552;-69
2022/12/19 01:48:37;;;;;;;11.18;5.72;;;9.10;99.90;;;;;;5054195;28;20112;-68
2022/12/19 01:51:06;;;;;;;10.70;5.63;;;9.10;99.90;;;;;;5054678;28;20033;-69
2022/12/19 01:53:43;;;;;;;10.32;5.72;;;9.10;99.90;;;;;;5054542;28;20036;-66
2022/12/19 01:56:09;;;;;;;10.50;5.75;;;9.10;99.90;;;;;;5054309;28;20035;-69
2022/12/19 01:58:40;;;;;;;8.65;5.78;;;9.00;99.90;;;;;;5054342;28;20028;-69
2022/12/19 02:01:06;;;;;;;9.25;6.05;;;9.00;99.90;;;;;;5054275;28;20025;-69
2022/12/19 02:03:34;;;;;;;10.15;5.70;;;9.10;99.90;;;;;;5054341;28;20474;-69
2022/12/19 02:06:01;;;;;;;7.80;5.47;;;9.00;99.90;;;;;;5054306;28;20067;-69
2022/12/19 02:08:27;;;;;;;9.60;5.88;;;9.00;99.90;;;;;;5054527;28;20082;-69
2022/12/19 02:10:53;;;;;;;9.32;5.68;;;9.00;99.90;;;;;;5053994;28;20512;-69
2022/12/19 02:13:20;;;;;;;8.93;5.70;;;9.10;99.90;;;;;;5054149;28;20025;-69
2022/12/19 02:16:13;;;;;;;8.70;5.90;;;9.10;99.90;;;;;;5053732;28;20029;-68
2022/12/19 02:18:41;;;;;;;10.25;5.75;;;9.10;99.90;;;;;;5054086;28;20074;-68
2022/12/19 02:21:10;;;;;;;11.52;5.57;;;9.00;99.90;;;;;;5054469;28;20100;-68
2022/12/19 02:23:58;;;;;;;10.13;5.85;;;9.00;99.90;;;;;;5054089;28;20028;-68
2022/12/19 02:26:48;;;;;;;10.13;5.90;;;9.10;99.90;;;;;;5054418;28;20025;-68
2022/12/19 02:29:35;;;;;;;9.43;5.78;;;9.10;99.90;;;;;;5053692;28;20017;-69
2022/12/19 02:32:11;;;;;;;10.52;6.03;;;9.10;99.90;;;;;;5052231;28;20040;-68
2022/12/19 02:34:54;;;;;;;11.52;5.47;;;9.10;99.90;;;;;;5053916;28;20025;-68
2022/12/19 02:37:28;;;;;;;10.80;5.80;;;9.10;99.90;;;;;;5053924;28;20025;-68
2022/12/19 02:40:03;;;;;;;9.07;5.45;;;9.10;99.90;;;;;;5053754;28;20021;-69
2022/12/19 02:42:32;;;;;;;9.18;5.78;;;9.10;99.90;;;;;;5053506;28;20029;-68
2022/12/19 02:44:59;;;;;;;10.73;5.80;;;9.00;99.90;;;;;;5053688;28;20051;-68
2022/12/19 02:47:27;;;;;;;10.60;5.85;;;9.00;99.90;;;;;;5053709;28;20067;-69
2022/12/19 02:49:53;;;;;;;10.43;5.97;;;9.10;99.90;;;;;;5053204;28;20075;-69
2022/12/19 02:52:18;;;;;;;11.38;5.90;;;9.20;99.90;;;;;;5053606;28;20025;-69
2022/12/19 02:54:47;;;;;;;10.00;5.60;;;9.20;99.90;;;;;;5053917;28;20054;-68
2022/12/19 02:57:39;;;;;;;11.18;5.80;;;9.20;99.90;;;;;;5053414;28;20060;-69
2022/12/19 03:00:12;;;;;;;9.63;5.90;;;9.10;99.90;;;;;;5053134;28;20036;-69
2022/12/19 03:03:08;;;;;;;9.90;5.77;;;9.20;99.90;;;;;;5053119;28;20029;-69
2022/12/19 03:05:54;;;;;;;10.55;5.72;;;9.20;99.90;;;;;;5053237;28;20299;-68
2022/12/19 03:08:23;;;;;;;10.45;5.53;;;9.20;99.90;;;;;;5053090;28;20030;-68
2022/12/19 03:10:59;;;;;;;10.48;5.90;;;9.20;99.90;;;;;;5052896;28;20033;-68
2022/12/19 03:13:40;;;;;;;10.05;5.63;;;9.10;99.90;;;;;;5053501;28;20036;-68
2022/12/19 03:16:09;;;;;;;10.35;5.80;;;9.20;99.90;;;;;;5052973;28;20486;-68
2022/12/19 03:18:35;;;;;;;11.38;5.80;;;9.20;99.90;;;;;;5053032;28;20562;-68
2022/12/19 03:21:08;;;;;;;7.65;5.78;;;9.20;99.90;;;;;;5052988;28;20040;-68
2022/12/19 03:23:34;;;;;;;8.98;5.53;;;9.10;99.90;;;;;;5052977;28;20569;-68
2022/12/19 03:26:16;;;;;;;7.93;5.55;;;9.20;99.90;;;;;;5053250;28;20033;-68
2022/12/19 03:29:05;;;;;;;8.23;5.60;;;9.20;99.90;;;;;;5052789;28;20025;-69
2022/12/19 03:31:33;;;;;;;8.73;5.43;;;9.20;99.90;;;;;;5052653;28;20033;-69
2022/12/19 03:34:19;;;;;;;12.20;5.93;;;9.30;99.90;;;;;;5052775;28;20033;-69
2022/12/19 03:36:48;;;;;;;8.35;5.40;;;9.40;99.90;;;;;;5052727;28;20032;-69
2022/12/19 03:39:16;;;;;;;9.48;5.00;;;9.40;99.90;;;;;;5052618;28;20095;-68
2022/12/19 03:44:31;;;;;;;11.38;5.60;;;9.50;99.90;;;;;;5052458;28;20044;-69
2022/12/19 03:47:13;;;;;;;11.98;5.07;;;9.60;99.90;;;;;;5052573;28;20025;-69
2022/12/19 03:49:39;;;;;;;7.63;5.47;;;9.50;99.90;;;;;;5052958;28;20474;-69
2022/12/19 03:52:26;;;;;;;8.13;4.97;;;9.40;99.90;;;;;;5052237;28;20045;-68
2022/12/19 03:55:20;;;;;;;12.52;5.05;;;9.50;99.90;;;;;;5052326;28;20021;-69
2022/12/19 03:58:18;;;;;;;9.85;5.32;;;9.50;99.90;;;;;;5051613;28;20025;-69
2022/12/19 04:00:46;;;;;;;8.55;4.78;;;9.50;99.90;;;;;;5047375;28;20485;-68
2022/12/19 04:03:16;;;;;;;11.32;5.55;;;9.60;99.90;;;;;;5052312;28;20498;-69
2022/12/19 04:05:44;;;;;;;8.20;4.97;;;9.50;99.90;;;;;;5052219;28;20056;-68
2022/12/19 04:08:10;;;;;;;11.25;5.13;;;9.50;99.90;;;;;;5052084;28;20037;-69
2022/12/19 04:10:59;;;;;;;9.88;5.13;;;9.50;99.90;;;;;;5051989;28;20045;-69
2022/12/19 04:13:36;;;;;;;10.23;5.10;;;9.60;99.90;;;;;;5052187;28;20030;-68
2022/12/19 04:16:11;;;;;;;7.53;4.95;;;9.40;99.90;;;;;;5052118;28;20021;-69
2022/12/19 04:18:40;;;;;;;6.13;4.93;;;9.40;99.90;;;;;;5051600;28;20028;-69
2022/12/19 04:21:12;;;;;;;9.35;5.10;;;9.40;99.90;;;;;;5052063;28;20388;-69
2022/12/19 04:23:53;;;;;;;10.95;5.40;;;9.40;99.90;;;;;;5051949;28;20017;-69
2022/12/19 04:26:21;;;;;;;14.35;5.40;;;9.30;99.90;;;;;;5052185;28;20564;-69
2022/12/19 04:28:53;;;;;;;9.60;5.25;;;9.30;99.90;;;;;;5051765;28;20031;-69
2022/12/19 04:31:19;;;;;;;8.65;5.32;;;9.30;99.90;;;;;;5051799;28;20489;-69
2022/12/19 04:33:45;;;;;;;10.32;5.00;;;9.30;99.90;;;;;;5052503;28;20489;-68
2022/12/19 04:36:11;;;;;;;9.57;5.30;;;9.40;99.90;;;;;;5052081;28;20070;-68
2022/12/19 04:38:37;;;;;;;9.48;5.07;;;9.30;99.90;;;;;;5051741;28;20021;-68
2022/12/19 04:41:03;;;;;;;10.73;5.07;;;9.30;99.90;;;;;;5051561;28;20431;-68
2022/12/19 04:43:28;;;;;;;9.57;5.05;;;9.30;99.90;;;;;;5051965;28;20057;-68
2022/12/19 04:45:55;;;;;;;8.40;4.72;;;9.30;99.90;;;;;;5051997;28;20453;-69
2022/12/19 04:48:20;;;;;;;7.60;4.70;;;9.30;99.90;;;;;;5050629;28;20381;-68
2022/12/19 04:50:46;;;;;;;11.07;5.30;;;9.20;99.90;;;;;;5051598;28;20032;-69
2022/12/19 04:53:12;;;;;;;7.85;5.03;;;9.20;99.90;;;;;;5052119;28;20021;-68
2022/12/19 04:55:39;;;;;;;9.95;5.38;;;9.40;99.90;;;;;;5051414;28;20036;-68
2022/12/19 04:58:05;;;;;;;7.50;4.80;;;9.40;99.90;;;;;;5051756;28;20398;-68
2022/12/19 05:00:31;;;;;;;9.32;5.20;;;9.40;99.90;;;;;;5051686;28;20439;-68
2022/12/19 05:02:57;;;;;;;8.95;5.07;;;9.30;99.90;;;;;;5051859;28;20029;-68
2022/12/19 05:05:23;;;;;;;9.05;4.85;;;9.40;99.90;;;;;;5051640;28;20489;-68
2022/12/19 05:07:50;;;;;;;9.00;5.13;;;9.40;99.90;;;;;;5051592;28;20032;-69
2022/12/19 05:10:15;;;;;;;7.97;5.18;;;9.20;99.90;;;;;;5050853;28;20048;-69
2022/12/19 05:12:41;;;;;;;24.42;16.08;;;9.30;99.90;;;;;;5051543;28;20033;-69
2022/12/19 05:15:07;;;;;;;9.80;5.00;;;9.20;99.90;;;;;;5051520;28;20033;-68
2022/12/19 05:17:33;;;;;;;8.15;4.65;;;9.20;99.90;;;;;;5051533;28;20079;-68
2022/12/19 05:19:59;;;;;;;9.07;5.00;;;9.30;99.90;;;;;;5051552;28;20021;-68
2022/12/19 05:22:26;;;;;;;7.50;5.10;;;9.30;99.90;;;;;;5051807;28;20033;-68
2022/12/19 05:24:52;;;;;;;9.15;4.78;;;9.30;99.90;;;;;;5051131;28;20029;-69
2022/12/19 05:27:18;;;;;;;6.70;4.90;;;9.40;99.90;;;;;;5051434;28;20029;-68
2022/12/19 05:29:43;;;;;;;8.45;5.00;;;9.30;99.90;;;;;;5052356;28;20028;-68
2022/12/19 05:32:09;;;;;;;12.00;5.53;;;9.30;99.90;;;;;;5055273;28;20037;-68
2022/12/19 05:34:35;;;;;;;10.40;4.97;;;9.30;99.90;;;;;;5055047;28;20451;-68
2022/12/19 05:37:02;;;;;;;7.97;5.10;;;9.30;99.90;;;;;;5055016;28;20025;-68
2022/12/19 05:39:28;;;;;;;8.18;4.85;;;9.30;99.90;;;;;;5054459;28;20095;-68
2022/12/19 05:41:54;;;;;;;7.55;4.90;;;9.30;99.90;;;;;;5054879;28;20551;-68
2022/12/19 05:44:19;;;;;;;10.98;5.35;;;9.30;99.90;;;;;;5054890;28;20105;-68
2022/12/19 05:46:45;;;;;;;12.50;5.78;;;9.40;99.90;;;;;;5055197;28;20090;-68
2022/12/19 05:49:11;;;;;;;7.82;4.90;;;9.40;99.90;;;;;;5054343;28;20025;-68
2022/12/19 05:51:37;;;;;;;8.43;5.15;;;9.30;99.90;;;;;;5054744;28;20519;-69
2022/12/19 05:54:03;;;;;;;11.77;6.45;;;9.40;99.90;;;;;;5054368;28;20025;-68
2022/12/19 05:56:28;;;;;;;8.00;5.38;;;9.30;99.90;;;;;;5054629;28;20402;-69
2022/12/19 05:58:54;;;;;;;9.15;5.45;;;9.20;99.90;;;;;;5054614;28;20017;-69
2022/12/19 06:01:23;;;;;;;9.48;5.13;;;9.30;99.90;;;;;;5054409;28;20029;-69
2022/12/19 06:03:49;;;;;;;7.40;5.40;;;9.30;99.90;;;;;;5054448;28;20094;-68
2022/12/19 06:06:18;;;;;;;8.02;5.38;;;9.30;99.90;;;;;;5054459;28;20032;-69
2022/12/19 06:08:44;;;;;;;8.68;5.40;;;9.30;99.90;;;;;;5054283;28;20026;-69
2022/12/19 06:11:11;;;;;;;10.18;5.70;;;9.30;99.90;;;;;;5054075;28;20064;-69
2022/12/19 06:13:37;;;;;;;7.35;5.30;;;9.20;99.90;;;;;;5054304;28;20078;-69
2022/12/19 06:16:06;;;;;;;10.40;5.50;;;9.00;99.90;;;;;;5054327;28;20090;-69
2022/12/19 06:18:32;;;;;;;9.48;5.93;;;9.20;99.90;;;;;;5054210;28;20537;-69
2022/12/19 06:21:03;;;;;;;8.00;5.50;;;9.20;99.90;;;;;;5054317;28;20040;-69
2022/12/19 06:23:31;;;;;;;10.02;6.07;;;9.10;99.90;;;;;;5053798;28;20025;-69
2022/12/19 06:25:58;;;;;;;7.15;5.45;;;9.00;99.90;;;;;;5054128;28;20021;-69
2022/12/19 06:28:25;;;;;;;8.65;5.13;;;9.10;99.90;;;;;;5054028;28;20052;-68
2022/12/19 06:30:51;;;;;;;8.73;5.68;;;9.10;99.90;;;;;;5053790;28;20041;-68
2022/12/19 06:33:17;;;;;;;8.88;5.22;;;9.10;99.90;;;;;;5053852;28;20561;-68
2022/12/19 06:35:43;;;;;;;10.70;5.68;;;9.20;99.90;;;;;;5054261;28;20029;-69
2022/12/19 06:38:09;;;;;;;7.63;5.32;;;9.20;99.90;;;;;;5053733;28;20544;-69
2022/12/19 06:43:25;;;;;;;9.05;5.47;;;9.00;99.90;;;;;;5053984;28;20051;-68
2022/12/19 06:45:50;;;;;;;8.50;5.70;;;9.10;99.90;;;;;;5053666;28;20025;-68
2022/12/19 06:48:16;;;;;;;8.55;5.63;;;9.10;99.90;;;;;;5054113;28;20021;-69
2022/12/19 06:50:42;;;;;;;8.07;5.68;;;9.00;99.90;;;;;;5053818;28;20473;-68
2022/12/19 06:53:07;;;;;;;9.73;6.32;;;9.00;99.90;;;;;;5053123;28;20093;-69
2022/12/19 06:55:36;;;;;;;9.23;5.50;;;9.00;99.90;;;;;;5053485;28;20013;-68
2022/12/19 06:58:02;;;;;;;9.13;5.45;;;8.90;99.90;;;;;;5053468;28;20021;-69
2022/12/19 07:00:27;;;;;;;6.93;5.68;;;8.70;99.90;;;;;;5053398;28;20544;-69
2022/12/19 07:02:54;;;;;;;8.02;5.55;;;8.80;99.90;;;;;;5053795;28;20286;-69
2022/12/19 07:05:21;;;;;;;9.05;6.00;;;8.80;99.90;;;;;;5053066;28;20029;-70
2022/12/19 07:07:46;;;;;;;11.32;5.88;;;8.80;99.90;;;;;;5053177;28;20025;-69
2022/12/19 07:10:12;;;;;;;8.90;5.75;;;8.60;99.90;;;;;;5052766;28;20048;-69
2022/12/19 07:12:38;;;;;;;9.65;6.38;;;8.60;99.90;;;;;;5053099;28;20036;-69
2022/12/19 07:15:04;;;;;;;10.75;6.60;;;8.60;99.90;;;;;;5053511;28;20108;-68
2022/12/19 07:17:30;;;;;;;8.75;6.70;;;8.60;99.90;;;;;;5052804;28;20032;-69
2022/12/19 07:19:57;;;;;;;10.45;6.50;;;8.60;99.90;;;;;;5052922;28;20029;-68
2022/12/19 07:22:25;;;;;;;10.27;6.20;;;8.70;99.90;;;;;;5052640;28;20376;-69
2022/12/19 07:24:51;;;;;;;8.10;6.10;;;8.50;99.90;;;;;;5052950;28;20033;-69
2022/12/19 07:27:16;;;;;;;7.65;5.95;;;8.70;99.90;;;;;;5053070;28;20027;-69
2022/12/19 07:29:42;;;;;;;7.35;5.80;;;8.80;99.90;;;;;;5051666;28;20545;-68
2022/12/19 07:32:08;;;;;;;8.52;5.88;;;8.80;99.90;;;;;;5052655;28;20108;-68
2022/12/19 07:34:33;;;;;;;7.68;5.50;;;8.80;99.90;;;;;;5052414;28;20102;-67
2022/12/19 07:36:59;;;;;;;10.15;6.00;;;8.80;99.90;;;;;;5053154;28;20024;-69
2022/12/19 07:39:25;;;;;;;9.57;6.10;;;8.90;99.90;;;;;;5052658;28;20127;-69
2022/12/19 07:41:51;;;;;;;11.57;7.25;;;8.80;99.90;;;;;;5052443;28;20123;-68
2022/12/19 07:44:17;;;;;;;10.70;6.60;;;8.80;99.90;;;;;;5052584;28;20498;-69
2022/12/19 07:46:43;;;;;;;9.80;5.38;;;8.80;99.90;;;;;;5052462;28;20124;-69
2022/12/19 07:49:09;;;;;;;7.65;5.57;;;8.90;99.90;;;;;;5052482;28;20036;-68
2022/12/19 07:51:35;;;;;;;7.47;5.75;;;9.00;99.90;;;;;;5052289;28;20115;-68
2022/12/19 07:54:01;;;;;;;8.60;5.88;;;9.00;99.90;;;;;;5051916;28;20085;-68
2022/12/19 07:56:27;;;;;;;9.10;5.80;;;9.20;99.90;;;;;;5052497;28;20060;-68
2022/12/19 07:58:53;;;;;;;7.82;6.32;;;9.20;99.90;;;;;;5052600;28;20481;-68
2022/12/19 08:01:19;;;;;;;9.25;6.43;;;9.20;99.90;;;;;;5052551;28;20626;-69
2022/12/19 08:03:44;;;;;;;7.53;6.70;;;9.30;99.90;;;;;;5051956;28;20466;-68
2022/12/19 08:06:10;;;;;;;6.72;5.32;;;9.40;99.90;;;;;;5052242;28;20028;-68
2022/12/19 08:08:36;;;;;;;6.15;5.38;;;9.50;99.90;;;;;;5052392;28;20550;-69
2022/12/19 08:11:10;;;;;;;6.53;4.88;;;9.70;99.90;;;;;;5051661;28;20127;-69
2022/12/19 08:13:37;;;;;;;8.20;5.40;;;9.80;99.90;;;;;;5052414;28;20059;-69
2022/12/19 08:16:03;;;;;;;9.25;4.93;;;9.90;99.90;;;;;;5051848;28;20029;-69
2022/12/19 08:18:29;;;;;;;7.78;5.43;;;10.10;99.90;;;;;;5051718;28;20017;-69
2022/12/19 08:20:54;;;;;;;8.02;4.95;;;10.30;99.90;;;;;;5052022;28;20032;-69
2022/12/19 08:23:20;;;;;;;9.75;4.90;;;10.50;99.90;;;;;;5052414;28;20031;-69
2022/12/19 08:25:46;;;;;;;7.00;4.72;;;10.50;99.90;;;;;;5052084;28;20033;-68
2022/12/19 08:28:11;;;;;;;7.00;4.75;;;11.10;99.90;;;;;;5051773;28;20017;-68
2022/12/19 08:30:38;;;;;;;7.68;4.97;;;11.60;99.90;;;;;;5051979;28;20443;-68
2022/12/19 08:33:04;;;;;;;7.10;4.68;;;11.80;99.90;;;;;;5051590;28;20028;-68
2022/12/19 08:35:31;;;;;;;8.60;5.20;;;12.20;99.90;;;;;;5051887;28;20112;-68
2022/12/19 08:37:57;;;;;;;6.97;4.20;;;12.60;99.90;;;;;;5051811;28;20487;-68
2022/12/19 08:40:23;;;;;;;8.75;4.93;;;12.70;99.90;;;;;;5052234;28;20105;-68
2022/12/19 08:42:49;;;;;;;6.05;3.90;;;12.80;99.90;;;;;;5051774;28;20095;-68
2022/12/19 08:45:17;;;;;;;6.85;4.47;;;12.30;99.90;;;;;;5051755;28;20482;-68
2022/12/19 08:47:43;;;;;;;7.25;4.38;;;12.80;99.90;;;;;;5051387;28;20478;-67
2022/12/19 08:50:10;;;;;;;7.25;4.05;;;12.70;99.90;;;;;;5051823;28;20028;-67
2022/12/19 08:52:36;;;;;;;5.13;3.30;;;12.70;99.90;;;;;;5051756;28;20048;-68
2022/12/19 08:55:03;;;;;;;7.20;3.97;;;13.10;99.90;;;;;;5051966;28;20152;-70
2022/12/19 08:57:29;;;;;;;5.95;3.90;;;13.00;99.90;;;;;;5051678;28;20497;-69
2022/12/19 08:59:54;;;;;;;4.45;3.63;;;12.50;99.90;;;;;;5051506;28;20055;-69
2022/12/19 09:02:20;;;;;;;5.20;4.20;;;11.80;99.90;;;;;;5051362;28;20060;-70
2022/12/19 09:04:46;;;;;;;5.63;4.28;;;11.50;99.90;;;;;;5054206;28;20367;-70
2022/12/19 09:07:12;;;;;;;7.53;4.68;;;11.50;99.90;;;;;;5055941;28;20028;-68
2022/12/19 09:09:38;;;;;;;8.88;5.00;;;11.50;99.90;;;;;;5055092;28;20048;-68
2022/12/19 09:12:04;;;;;;;6.70;4.43;;;11.50;99.90;;;;;;5055280;28;20040;-68
2022/12/19 09:14:35;;;;;;;7.20;4.05;;;11.60;99.90;;;;;;5055518;28;20104;-68
2022/12/19 09:17:01;;;;;;;7.47;3.83;;;11.50;99.90;;;;;;5055048;28;20033;-68
2022/12/19 09:19:27;;;;;;;4.05;3.50;;;11.50;99.90;;;;;;5055810;28;20025;-68
2022/12/19 09:21:52;;;;;;;8.23;3.83;;;11.60;99.90;;;;;;5055211;28;20389;-69
2022/12/19 09:24:19;;;;;;;7.82;3.53;;;11.80;99.90;;;;;;5054875;28;20087;-68
2022/12/19 09:26:45;;;;;;;8.07;4.70;;;11.70;99.90;;;;;;5055584;28;20037;-68
2022/12/19 09:29:11;;;;;;;6.53;4.10;;;11.60;99.90;;;;;;5054988;28;20021;-67
2022/12/19 09:31:37;;;;;;;5.03;3.90;;;11.80;99.90;;;;;;5054770;28;20033;-68
2022/12/19 09:34:03;;;;;;;6.18;3.97;;;12.00;99.90;;;;;;5055127;28;20021;-69
2022/12/19 09:36:29;;;;;;;5.20;3.63;;;12.20;99.90;;;;;;5055500;28;20025;-72
2022/12/19 09:38:56;;;;;;;8.10;4.75;;;12.20;99.90;;;;;;5055084;28;20067;-68
2022/12/19 09:41:43;;;;;;;6.47;4.00;;;12.20;99.90;;;;;;5054637;28;20021;-67
2022/12/19 09:44:17;;;;;;;7.32;3.70;;;12.00;99.90;;;;;;5054822;28;20029;-69
2022/12/19 09:46:48;;;;;;;8.57;7.45;;;11.80;99.90;;;;;;5054766;28;20024;-69
2022/12/19 09:49:28;;;;;;;17.80;15.07;;;11.70;99.90;;;;;;5055058;28;20020;-67
2022/12/19 09:52:03;;;;;;;5.50;4.10;;;11.90;99.90;;;;;;5054645;28;20543;-68
2022/12/19 09:54:32;;;;;;;5.30;3.78;;;11.90;99.90;;;;;;5054664;28;20032;-68
2022/12/19 09:57:04;;;;;;;6.53;4.00;;;11.70;99.90;;;;;;5054258;28;20049;-69
2022/12/19 09:59:49;;;;;;;6.20;3.60;;;11.70;99.90;;;;;;5053833;28;20045;-69
2022/12/19 10:02:14;;;;;;;5.43;3.70;;;11.60;99.90;;;;;;5054514;28;20021;-69
2022/12/19 10:04:47;;;;;;;6.88;4.00;;;11.60;99.90;;;;;;5054493;28;20043;-68
2022/12/19 10:07:14;;;;;;;5.18;3.83;;;11.60;99.90;;;;;;5054446;28;20035;-68
2022/12/19 10:09:40;;;;;;;5.97;4.00;;;11.60;99.90;;;;;;5054099;28;20045;-68
2022/12/19 10:12:29;;;;;;;6.22;4.40;;;11.60;99.90;;;;;;5054255;28;20052;-68
2022/12/19 10:15:22;;;;;;;8.50;5.00;;;11.60;99.90;;;;;;5053394;28;20496;-67
2022/12/19 10:18:06;;;;;;;7.88;5.57;;;11.70;99.90;;;;;;5054462;28;20083;-68
2022/12/19 10:20:40;;;;;;;5.75;4.03;;;11.70;99.90;;;;;;5054158;28;20401;-68
2022/12/19 10:23:43;;;;;;;7.22;4.65;;;11.70;99.90;;;;;;5054218;28;20025;-69
2022/12/19 10:26:23;;;;;;;5.72;4.63;;;11.70;99.90;;;;;;5049890;28;20758;-68
2022/12/19 10:29:12;;;;;;;5.75;4.32;;;11.70;99.90;;;;;;5052203;28;20035;-69
2022/12/19 10:31:58;;;;;;;7.13;4.22;;;11.70;99.90;;;;;;5031540;28;20596;-67
2022/12/19 10:34:32;;;;;;;7.05;4.47;;;11.70;99.90;;;;;;5031157;28;20025;-67
2022/12/19 10:37:08;;;;;;;5.57;3.50;;;11.80;99.90;;;;;;5031624;28;20459;-68
2022/12/19 10:39:58;;;;;;;4.82;3.63;;;11.80;99.90;;;;;;5031042;28;20056;-71
2022/12/19 10:42:45;;;;;;;5.45;3.90;;;11.80;99.90;;;;;;5031306;28;20527;-72
2022/12/19 10:45:17;;;;;;;5.45;3.90;;;11.90;99.90;;;;;;5012463;28;20018;-74
2022/12/19 10:47:46;;;;;;;4.03;3.63;;;12.00;99.90;;;;;;5010759;28;20062;-70
2022/12/19 10:50:20;;;;;;;3.92;3.15;;;12.10;99.90;;;;;;5011312;28;20562;-74
2022/12/19 10:53:10;;;;;;;;;;;12.20;99.90;;;;;;5012072;28;20045;-74
2022/12/19 10:55:41;;;;;;;5.78;3.67;;;12.10;99.90;;;;;;5005872;28;19905;-72
2022/12/19 10:58:32;;;;;;;5.03;4.00;;;12.20;99.90;;;;;;5011428;28;20491;-73
2022/12/19 11:01:11;;;;;;;4.50;3.63;;;12.10;99.90;;;;;;5010549;28;20109;-73
2022/12/19 11:03:40;;;;;;;7.28;5.13;;;12.30;99.90;;;;;;5011219;28;20410;-71
2022/12/19 11:06:28;;;;;;;6.85;4.10;;;12.40;99.90;;;;;;5027578;28;20399;-74
2022/12/19 11:09:17;;;;;;;5.15;4.47;;;12.40;99.90;;;;;;4971182;28;20105;-69
2022/12/19 11:11:46;;;;;;;7.20;4.93;;;12.50;99.90;;;;;;4971754;28;20070;-68
2022/12/19 11:14:21;;;;;;;6.80;4.68;;;12.70;99.90;;;;;;4971585;28;20034;-70
2022/12/19 11:16:47;;;;;;;5.82;4.28;;;12.80;99.90;;;;;;4971936;28;20039;-69
2022/12/19 11:19:38;;;;;;;7.03;4.63;;;13.10;99.90;;;;;;4971724;28;20086;-68
2022/12/19 11:22:18;;;;;;;4.20;3.33;;;13.50;99.90;;;;;;4971789;28;20035;-68
2022/12/19 11:24:48;;;;;;;4.90;3.67;;;14.60;99.90;;;;;;4972311;28;20031;-69
2022/12/19 11:27:39;;;;;;;5.22;3.03;;;15.70;99.90;;;;;;4970421;28;20097;-69
2022/12/19 11:30:18;;;;;;;4.70;3.30;;;15.30;99.90;;;;;;4970940;28;20039;-68
2022/12/19 11:32:46;;;;;;;3.80;3.22;;;15.60;99.90;;;;;;4972143;28;20078;-68
2022/12/19 11:35:49;;;;;;;5.93;3.30;;;16.10;99.90;;;;;;4971844;28;20030;-68
2022/12/19 11:38:24;;;;;;;5.10;2.90;;;16.60;99.90;;;;;;4971353;28;20115;-67
2022/12/19 11:40:55;;;;;;;3.50;2.88;;;16.50;99.90;;;;;;4971603;28;20039;-67
2022/12/19 11:43:33;;;;;;;4.18;3.10;;;16.30;99.90;;;;;;4970531;28;20031;-67
2022/12/19 11:46:04;;;;;;;4.35;3.03;;;16.90;99.90;;;;;;5012070;28;20516;-67
2022/12/19 11:48:36;;;;;;;5.13;3.53;;;17.10;99.90;;;;;;5052556;28;20033;-67
2022/12/19 11:51:16;;;;;;;5.38;3.25;;;17.50;99.90;;;;;;5051654;28;20044;-64
2022/12/19 11:53:56;;;;;;;6.05;3.33;;;16.90;99.90;;;;;;5052243;28;20021;-68
2022/12/19 11:56:24;;;;;;;4.13;3.40;;;17.80;99.90;;;;;;5051872;28;20044;-71
2022/12/19 11:58:55;;;;;;;5.05;3.75;;;17.40;99.90;;;;;;5051382;28;20045;-68
2022/12/19 12:01:38;;;;;;;5.97;3.65;;;18.50;99.90;;;;;;5052622;28;20507;-71
2022/12/19 12:04:16;;;;;;;4.95;3.25;;;19.10;99.90;;;;;;5051971;28;20021;-71
2022/12/19 12:06:53;;;;;;;5.47;3.17;;;19.10;99.90;;;;;;5051760;28;20025;-70
2022/12/19 12:09:40;;;;;;;4.00;2.97;;;17.20;99.90;;;;;;5051943;28;20051;-68
2022/12/19 12:12:47;;;;;;;4.63;2.90;;;16.40;99.90;;;;;;5031027;28;20041;-68
2022/12/19 12:15:40;;;;;;;5.10;2.95;;;16.30;99.90;;;;;;5010278;28;20491;-70
2022/12/19 12:18:23;;;;;;;4.03;2.97;;;16.80;99.90;;;;;;5009637;28;20030;-70
2022/12/19 12:21:21;;;;;;;5.00;3.22;;;17.40;99.90;;;;;;5021417;28;20641;-70
2022/12/19 12:24:07;;;;;;;3.50;2.60;;;17.10;99.90;;;;;;5029901;28;20087;-70
2022/12/19 12:26:39;;;;;;;3.28;2.85;;;17.10;99.90;;;;;;5028354;28;20422;-69
2022/12/19 12:29:22;;;;;;;4.72;2.97;;;16.70;99.90;;;;;;5029689;28;20063;-70
2022/12/19 12:31:59;;;;;;;2.90;2.47;;;16.90;99.90;;;;;;5029293;28;20045;-69
2022/12/19 12:34:31;;;;;;;4.38;3.20;;;16.90;99.90;;;;;;5029287;28;20034;-69
2022/12/19 12:37:26;;;;;;;5.03;2.90;;;17.10;99.90;;;;;;5029837;28;20028;-69
2022/12/19 12:40:20;;;;;;;5.03;2.90;;;16.70;99.90;;;;;;5031760;28;20037;-70
2022/12/19 12:43:11;;;;;;;4.47;3.10;;;16.50;99.90;;;;;;5033500;28;20040;-69
2022/12/19 12:45:39;;;;;;;4.07;2.90;;;16.70;99.90;;;;;;5041595;28;20052;-70
2022/12/19 12:48:30;;;;;;;6.05;3.05;;;16.70;99.90;;;;;;5055192;28;20021;-71
2022/12/19 12:50:59;;;;;;;4.38;3.03;;;16.80;99.90;;;;;;5055608;28;20029;-72
2022/12/19 12:53:37;;;;;;;4.30;2.97;;;16.50;99.90;;;;;;5055184;28;20075;-71
2022/12/19 12:56:05;;;;;;;4.05;3.10;;;16.40;99.90;;;;;;5055167;28;20055;-72
2022/12/19 12:58:45;;;;;;;4.60;3.13;;;16.10;99.90;;;;;;5055953;28;20455;-71
2022/12/19 13:01:16;;;;;;;5.55;3.80;;;16.20;99.90;;;;;;5055019;28;20052;-71
2022/12/19 13:03:50;;;;;;;6.30;4.07;;;16.20;99.90;;;;;;5054892;28;20532;-72
2022/12/19 13:06:42;;;;;;;5.45;4.57;;;15.90;99.90;;;;;;5054942;28;20036;-70
2022/12/19 13:09:07;;;;;;;4.28;3.30;;;16.10;99.90;;;;;;5049220;28;20032;-72
2022/12/19 13:14:34;;;;;;;4.47;3.33;;;16.00;99.90;;;;;;5055157;28;20090;-73
2022/12/19 13:17:02;;;;;;;3.45;3.00;;;15.80;99.90;;;;;;5054985;28;20029;-72
2022/12/19 13:19:30;;;;;;;3.05;2.75;;;15.60;99.90;;;;;;5055386;28;20025;-73
2022/12/19 13:22:08;;;;;;;3.65;3.00;;;15.60;99.90;;;;;;5054613;28;20489;-72